Decoded Metar for OMAA (ABU DHABI in UNITED ARAB EMIRATES) (IATA:AUH) | Meteo·Mobile Aviation Weather
aviador You're here:

OMAA Decoded Metar

ABU DHABI in UNITED ARAB EMIRATES
Report Time2019-01-19 17:00:00
UTC Time2019-01-19 17:18:44
Flight Rules vfr VFR
Wind300° at 10 kt
W.Decomp.*RWY 31: 9.8 kt HW 1.9 kt LCW
W.Rank300° ranks 2
Current wind is above 300° avg. (9.9)
Visibility8000 m
Phenomena:N/A
Clouds:Few 035 Hf
Expected CloudBase > 3,200 ft AGL from Temp-Dew spread
CeilingNone
Temp19°C (ISA +4)
Dew Point11°C (60% RH)
AAT15.7°C
QNH1019 hPa
Density Alt554 ft
Elevation89 ft
Report Wrong Elevation
Raw Report
METAR OMAA 191700Z 30010KT 8000 FEW035 19/11 Q1019 NOSIG=

Extra information for OMAA:More info

Metar Taf Metar & Taf Last 4 Metars F.Rules Stats Wind Profile Meteogram Temp Stats Airport Information Weather charts Add Link Nearby VenuesMetar ALERT Operation Metar Decoded Social comments